Time;durP1;ratioP1;P1;durP2;ratioP2;P2;SDS_P1;SDS_P2;PMS_P1;PMS_P2;Temp;Humidity;BMP_temperature;BMP_pressure;BME280_temperature;BME280_humidity;BME280_pressure;Samples;Min_cycle;Max_cycle;Signal;HPM_P1;HPM_P2
2021/07/15 00:02:18;;;;;;;5.57;4.90;;;22.40;90.40;;;;;;5037554;28;20030;-79
2021/07/15 00:05:13;;;;;;;5.20;4.57;;;22.40;90.30;;;;;;5043742;28;20157;-79
2021/07/15 00:08:00;;;;;;;5.85;4.78;;;22.40;90.40;;;;;;5029717;28;20048;-80
2021/07/15 00:10:54;;;;;;;5.72;4.80;;;22.40;90.40;;;;;;5031522;28;20339;-79
2021/07/15 00:13:40;;;;;;;7.60;5.25;;;22.40;90.50;;;;;;5047541;28;20025;-78
2021/07/15 00:16:26;;;;;;;5.13;4.63;;;22.40;90.50;;;;;;5038516;28;20041;-78
2021/07/15 00:19:15;;;;;;;6.65;4.68;;;22.40;90.60;;;;;;5022289;28;20465;-79
2021/07/15 00:22:01;;;;;;;6.45;4.63;;;22.50;90.60;;;;;;5052836;28;20028;-81
2021/07/15 00:24:47;;;;;;;5.65;4.65;;;22.40;90.70;;;;;;5051275;28;20045;-79
2021/07/15 00:27:33;;;;;;;7.28;4.70;;;22.40;90.70;;;;;;5040482;28;20374;-79
2021/07/15 00:30:19;;;;;;;6.55;5.40;;;22.30;90.80;;;;;;5046007;28;20068;-79
2021/07/15 00:33:06;;;;;;;7.78;5.22;;;22.40;90.80;;;;;;5055285;28;20037;-79
2021/07/15 00:35:52;;;;;;;8.35;4.60;;;22.40;90.90;;;;;;5051690;28;20037;-78
2021/07/15 00:38:38;;;;;;;5.38;4.88;;;22.40;90.70;;;;;;5035654;28;20104;-79
2021/07/15 00:41:24;;;;;;;5.82;4.72;;;22.40;90.80;;;;;;5035272;28;20037;-80
2021/07/15 00:44:10;;;;;;;6.70;4.65;;;22.40;90.80;;;;;;5038670;28;20017;-81
2021/07/15 00:46:55;;;;;;;7.53;4.80;;;22.30;90.90;;;;;;5032714;28;20036;-82
2021/07/15 00:49:41;;;;;;;5.60;4.80;;;22.30;90.90;;;;;;5039898;28;20120;-79
2021/07/15 00:52:27;;;;;;;6.45;5.03;;;22.30;91.00;;;;;;5044642;28;20072;-82
2021/07/15 00:55:25;;;;;;;6.88;4.63;;;22.30;91.10;;;;;;5052205;28;20512;-78
2021/07/15 00:58:13;;;;;;;5.95;4.68;;;22.30;91.10;;;;;;5046479;28;20048;-78
2021/07/15 01:01:00;;;;;;;5.75;4.10;;;22.20;91.00;;;;;;5051762;28;20033;-78
2021/07/15 01:03:48;;;;;;;7.22;4.60;;;22.20;91.20;;;;;;5054015;28;20047;-78
2021/07/15 01:06:35;;;;;;;5.85;4.45;;;22.20;91.10;;;;;;5019617;28;20560;-78
2021/07/15 01:09:22;;;;;;;5.57;4.05;;;22.20;91.20;;;;;;5052012;28;20029;-78
2021/07/15 01:12:32;;;;;;;5.15;4.40;;;22.10;91.30;;;;;;5042008;28;20505;-77
2021/07/15 01:15:22;;;;;;;5.82;4.53;;;22.10;91.40;;;;;;5053147;28;20041;-77
2021/07/15 01:18:13;;;;;;;7.25;4.80;;;22.10;91.50;;;;;;5032703;28;20033;-77
2021/07/15 01:21:34;;;;;;;6.72;5.15;;;22.10;91.40;;;;;;5057876;28;20137;-78
2021/07/15 01:24:47;;;;;;;6.90;4.68;;;22.00;91.50;;;;;;5048169;28;20059;-77
2021/07/15 01:28:02;;;;;;;5.15;4.50;;;22.00;91.60;;;;;;5043195;28;20032;-77
2021/07/15 01:30:50;;;;;;;6.53;4.82;;;21.90;91.80;;;;;;5047187;28;20040;-77
2021/07/15 01:33:37;;;;;;;5.63;4.88;;;21.90;91.80;;;;;;5054911;28;20087;-78
2021/07/15 01:36:23;;;;;;;14.60;5.30;;;21.80;91.80;;;;;;5032638;28;20175;-77
2021/07/15 01:39:09;;;;;;;5.30;4.68;;;21.90;92.00;;;;;;5049951;28;20400;-77
2021/07/15 01:41:57;;;;;;;5.22;4.53;;;21.80;92.00;;;;;;5049471;28;20060;-77
2021/07/15 01:44:41;;;;;;;6.68;4.75;;;21.70;92.00;;;;;;5053410;28;20040;-78
2021/07/15 01:47:27;;;;;;;5.75;4.65;;;21.70;92.00;;;;;;5050064;28;20036;-77
2021/07/15 01:50:12;;;;;;;5.80;5.03;;;21.70;92.00;;;;;;5051533;28;20592;-77
2021/07/15 01:52:57;;;;;;;5.57;4.43;;;21.70;92.00;;;;;;5047265;28;20432;-77
2021/07/15 01:55:41;;;;;;;4.88;4.25;;;21.60;92.00;;;;;;5052170;28;20040;-77
2021/07/15 01:58:30;;;;;;;5.20;3.80;;;21.60;91.90;;;;;;5037559;28;20523;-77
2021/07/15 02:01:16;;;;;;;4.80;3.80;;;21.60;92.00;;;;;;5049566;28;20083;-77
2021/07/15 02:04:02;;;;;;;5.00;4.38;;;21.50;91.90;;;;;;5053252;28;20043;-77
2021/07/15 02:06:49;;;;;;;4.70;3.45;;;21.50;91.90;;;;;;5051008;28;20421;-77
2021/07/15 02:09:35;;;;;;;4.40;3.63;;;21.50;91.70;;;;;;5047067;28;20035;-77
2021/07/15 02:12:20;;;;;;;4.28;3.47;;;21.50;91.80;;;;;;5049975;28;20035;-77
2021/07/15 02:15:05;;;;;;;;;;;21.40;91.70;;;;;;5038411;28;20039;-77
2021/07/15 02:17:49;;;;;;;4.37;3.27;;;21.40;91.60;;;;;;5050201;28;19935;-77
2021/07/15 02:20:33;;;;;;;4.30;3.63;;;21.40;91.90;;;;;;5052172;28;20036;-78
2021/07/15 02:23:18;;;;;;;4.65;3.30;;;21.40;91.80;;;;;;5049546;28;20527;-79
2021/07/15 02:26:04;;;;;;;4.05;3.53;;;21.30;91.80;;;;;;5051196;28;20500;-80
2021/07/15 02:28:48;;;;;;;4.55;3.30;;;21.30;91.80;;;;;;5051207;28;20538;-80
2021/07/15 02:31:43;;;;;;;4.80;3.10;;;21.30;91.80;;;;;;5048649;28;20504;-80
2021/07/15 02:34:35;;;;;;;4.40;3.63;;;21.30;92.00;;;;;;5048883;28;20136;-80
2021/07/15 02:37:26;;;;;;;4.72;3.78;;;21.30;91.90;;;;;;5035633;28;20043;-77
2021/07/15 02:40:14;;;;;;;4.93;3.40;;;21.30;92.00;;;;;;5045293;28;20134;-77
2021/07/15 02:42:58;;;;;;;3.92;3.08;;;21.20;92.10;;;;;;5050367;28;20074;-76
2021/07/15 02:45:42;;;;;;;3.60;2.90;;;21.30;92.10;;;;;;5050014;28;20436;-76
2021/07/15 02:48:26;;;;;;;4.28;3.22;;;21.30;92.10;;;;;;5052634;28;20079;-76
2021/07/15 02:51:10;;;;;;;4.33;3.73;;;21.20;92.10;;;;;;5048280;28;20035;-76
2021/07/15 02:53:55;;;;;;;4.30;2.88;;;21.10;92.10;;;;;;5052396;28;20279;-76
2021/07/15 02:57:02;;;;;;;4.85;3.03;;;21.10;92.30;;;;;;5049371;28;20052;-77
2021/07/15 02:59:57;;;;;;;5.00;3.08;;;21.10;92.40;;;;;;5052443;28;20035;-76
2021/07/15 03:03:04;;;;;;;5.65;3.30;;;21.10;92.50;;;;;;5032625;28;20109;-76
2021/07/15 03:05:59;;;;;;;14.38;4.18;;;21.10;92.40;;;;;;5043569;28;20685;-76
2021/07/15 03:08:54;;;;;;;5.53;4.00;;;21.00;92.50;;;;;;5051876;28;20028;-77
2021/07/15 03:11:57;;;;;;;4.93;3.72;;;21.00;92.70;;;;;;5050345;28;20546;-77
2021/07/15 03:14:44;;;;;;;4.25;3.53;;;21.00;92.80;;;;;;5050815;28;20039;-77
2021/07/15 03:17:35;;;;;;;6.97;3.30;;;20.90;92.90;;;;;;5038411;28;20544;-76
2021/07/15 03:20:40;;;;;;;4.40;3.60;;;21.00;93.00;;;;;;5024529;28;20110;-78
2021/07/15 03:23:26;;;;;;;7.03;3.90;;;21.00;93.00;;;;;;5050449;28;20102;-79
2021/07/15 03:26:13;;;;;;;5.95;4.30;;;21.00;93.00;;;;;;5050282;28;20032;-83
2021/07/15 03:29:01;;;;;;;4.57;3.92;;;21.00;93.00;;;;;;5050631;28;20423;-80
2021/07/15 03:31:47;;;;;;;3.92;3.40;;;21.10;93.10;;;;;;5050963;28;20084;-79
2021/07/15 03:34:35;;;;;;;4.25;3.67;;;21.10;93.20;;;;;;5044440;28;20047;-79
2021/07/15 03:37:21;;;;;;;4.95;4.13;;;21.10;93.30;;;;;;5047553;28;20033;-79
2021/07/15 03:40:09;;;;;;;5.28;3.95;;;21.10;93.30;;;;;;5051611;28;20038;-79
2021/07/15 03:42:56;;;;;;;6.63;4.78;;;21.10;93.30;;;;;;5048008;28;20051;-79
2021/07/15 03:45:45;;;;;;;4.70;3.92;;;21.10;93.40;;;;;;5048565;28;20504;-80
2021/07/15 03:48:33;;;;;;;5.40;4.45;;;21.10;93.40;;;;;;5047262;28;20108;-78
2021/07/15 03:51:19;;;;;;;6.57;4.47;;;21.10;93.50;;;;;;5049519;28;20111;-80
2021/07/15 03:54:05;;;;;;;5.63;3.97;;;21.00;93.60;;;;;;5049690;28;20033;-79
2021/07/15 03:56:52;;;;;;;4.70;4.20;;;21.10;93.60;;;;;;5046220;28;20075;-78
2021/07/15 03:59:48;;;;;;;5.10;3.75;;;21.10;93.70;;;;;;5037014;28;20033;-79
2021/07/15 04:02:37;;;;;;;5.18;4.18;;;21.00;93.80;;;;;;5038876;28;20033;-80
2021/07/15 04:05:24;;;;;;;6.70;4.50;;;21.00;93.90;;;;;;5056058;28;20450;-79
2021/07/15 04:08:10;;;;;;;5.28;4.20;;;21.00;93.90;;;;;;5054782;28;20029;-79
2021/07/15 04:11:02;;;;;;;4.88;3.85;;;21.00;94.00;;;;;;5055915;28;20545;-79
2021/07/15 04:13:48;;;;;;;6.32;4.05;;;21.00;94.10;;;;;;5026769;28;20556;-83
2021/07/15 04:16:59;;;;;;;7.13;4.05;;;21.10;94.10;;;;;;5042573;28;20119;-82
2021/07/15 04:19:46;;;;;;;7.80;4.55;;;21.10;94.20;;;;;;5053157;28;20029;-82
2021/07/15 04:22:33;;;;;;;9.18;4.57;;;21.00;94.30;;;;;;5052274;28;20036;-83
2021/07/15 04:25:22;;;;;;;8.88;4.93;;;21.00;94.40;;;;;;5015388;28;20046;-83
2021/07/15 04:28:08;;;;;;;7.70;4.68;;;21.00;94.40;;;;;;5013310;28;20038;-80
2021/07/15 04:31:11;;;;;;;8.43;5.20;;;21.10;94.40;;;;;;5011004;28;20050;-80
2021/07/15 04:34:00;;;;;;;6.20;4.45;;;21.10;94.40;;;;;;5008679;28;20519;-81
2021/07/15 04:36:47;;;;;;;9.25;5.38;;;21.10;94.50;;;;;;5012050;28;20048;-79
2021/07/15 04:39:34;;;;;;;5.03;4.00;;;21.20;94.40;;;;;;5014519;28;20042;-78
2021/07/15 04:42:22;;;;;;;6.82;4.75;;;21.20;94.60;;;;;;5000309;28;20057;-76
2021/07/15 04:45:11;;;;;;;9.82;4.95;;;21.20;94.60;;;;;;4995543;28;20072;-78
2021/07/15 04:47:58;;;;;;;8.63;5.30;;;21.20;94.60;;;;;;5013360;28;20508;-78
2021/07/15 04:50:44;;;;;;;8.68;5.13;;;21.30;94.60;;;;;;5011724;28;20030;-78
2021/07/15 04:53:31;;;;;;;8.20;5.60;;;21.30;94.90;;;;;;5013118;28;20091;-78
2021/07/15 04:56:18;;;;;;;8.23;5.75;;;21.30;94.60;;;;;;5008017;28;20038;-79
2021/07/15 04:59:05;;;;;;;7.72;4.80;;;21.30;94.60;;;;;;5010970;28;20080;-79
2021/07/15 05:01:51;;;;;;;7.05;4.70;;;21.30;94.60;;;;;;5009636;28;20038;-79
2021/07/15 05:04:37;;;;;;;10.40;4.40;;;21.30;94.60;;;;;;5009893;28;20030;-78
2021/07/15 05:07:23;;;;;;;8.27;4.45;;;21.40;94.50;;;;;;5003454;28;20482;-79
2021/07/15 05:10:10;;;;;;;6.70;4.35;;;21.40;94.40;;;;;;5010658;28;20454;-79
2021/07/15 05:12:56;;;;;;;5.30;3.83;;;21.40;94.30;;;;;;5008198;28;20029;-78
2021/07/15 05:15:42;;;;;;;5.35;3.78;;;21.40;94.20;;;;;;5013050;28;20085;-79
2021/07/15 05:18:28;;;;;;;4.53;3.08;;;21.40;93.90;;;;;;5007880;28;20033;-78
2021/07/15 05:21:12;;;;;;;4.87;3.80;;;21.50;93.80;;;;;;5012755;28;20509;-78
2021/07/15 05:23:55;;;;;;;5.53;4.13;;;21.50;93.60;;;;;;5030122;28;20302;-80
2021/07/15 05:26:39;;;;;;;4.47;3.17;;;21.50;93.60;;;;;;5034921;28;20083;-75
2021/07/15 05:29:24;;;;;;;5.70;3.00;;;21.50;93.30;;;;;;5037749;28;20504;-75
2021/07/15 05:32:08;;;;;;;3.90;2.90;;;21.50;93.30;;;;;;5043575;28;20047;-77
2021/07/15 05:34:52;;;;;;;4.13;3.20;;;21.50;93.20;;;;;;5049894;28;20375;-77
2021/07/15 05:37:36;;;;;;;3.67;2.50;;;21.50;93.10;;;;;;5045727;28;20137;-80
2021/07/15 05:40:20;;;;;;;4.45;2.80;;;21.50;93.30;;;;;;5045665;28;20035;-77
2021/07/15 05:43:04;;;;;;;4.93;3.33;;;21.60;93.40;;;;;;5046609;28;20204;-79
2021/07/15 05:45:48;;;;;;;4.80;3.17;;;21.60;93.60;;;;;;5051381;28;20107;-78
2021/07/15 05:48:32;;;;;;;4.20;3.03;;;21.70;93.20;;;;;;5048585;28;20044;-76
2021/07/15 05:51:16;;;;;;;4.97;2.60;;;21.80;93.10;;;;;;5048272;28;20060;-79
2021/07/15 05:54:01;;;;;;;5.60;2.90;;;21.90;92.90;;;;;;5051602;28;20562;-78
2021/07/15 05:56:44;;;;;;;5.25;3.17;;;22.00;93.00;;;;;;5034225;28;20294;-75
2021/07/15 05:59:28;;;;;;;6.30;2.58;;;22.20;92.80;;;;;;5051356;28;20039;-77
2021/07/15 06:02:13;;;;;;;4.18;2.67;;;22.30;92.90;;;;;;5046769;28;20036;-77
2021/07/15 06:04:57;;;;;;;4.55;2.88;;;22.50;92.80;;;;;;5051326;28;20033;-76
2021/07/15 06:07:41;;;;;;;5.93;3.53;;;22.60;92.30;;;;;;5043008;28;20253;-77
2021/07/15 06:10:27;;;;;;;4.95;3.25;;;22.70;91.90;;;;;;5049459;28;20076;-76
2021/07/15 06:13:13;;;;;;;9.05;4.32;;;22.70;91.90;;;;;;5048519;28;20056;-76
2021/07/15 06:15:56;;;;;;;6.38;3.30;;;22.80;92.00;;;;;;5026414;28;20049;-76
2021/07/15 06:18:40;;;;;;;4.55;3.08;;;22.90;91.60;;;;;;5041679;28;20032;-77
2021/07/15 06:21:25;;;;;;;5.97;2.55;;;22.90;91.20;;;;;;5048796;28;21079;-76
2021/07/15 06:24:09;;;;;;;4.82;2.60;;;22.90;90.60;;;;;;5049374;28;20106;-78
2021/07/15 06:26:54;;;;;;;6.47;2.63;;;22.90;90.70;;;;;;5040477;28;20040;-77
2021/07/15 06:29:38;;;;;;;4.60;2.70;;;22.90;90.60;;;;;;5043920;28;20120;-76
2021/07/15 06:32:22;;;;;;;4.20;2.50;;;23.00;90.60;;;;;;5044620;28;20076;-76
2021/07/15 06:35:07;;;;;;;4.22;2.63;;;23.00;90.50;;;;;;5047306;28;20032;-79
2021/07/15 06:37:53;;;;;;;3.92;2.50;;;23.10;90.80;;;;;;5040479;28;20107;-78
2021/07/15 06:40:38;;;;;;;3.80;2.30;;;23.20;90.30;;;;;;5044076;28;20028;-80
2021/07/15 06:43:22;;;;;;;4.60;2.20;;;23.30;90.00;;;;;;5044698;28;20096;-77
2021/07/15 06:46:06;;;;;;;5.35;2.40;;;23.40;90.30;;;;;;5027353;28;20083;-77
2021/07/15 06:48:50;;;;;;;3.80;2.05;;;23.50;89.60;;;;;;5034185;28;20106;-78
2021/07/15 06:51:35;;;;;;;3.63;2.28;;;23.60;90.00;;;;;;5043987;28;20039;-77
2021/07/15 06:54:19;;;;;;;3.45;2.10;;;23.70;89.30;;;;;;5040603;28;20507;-78
2021/07/15 06:57:03;;;;;;;4.60;2.03;;;23.80;89.10;;;;;;5049032;28;20670;-78
2021/07/15 06:59:47;;;;;;;4.03;1.83;;;23.80;89.60;;;;;;5049218;28;20107;-78
2021/07/15 07:02:31;;;;;;;2.33;1.90;;;23.90;88.30;;;;;;5049279;28;20083;-79
2021/07/15 07:05:16;;;;;;;3.40;2.30;;;24.00;88.20;;;;;;5030044;28;20377;-80
2021/07/15 07:08:00;;;;;;;3.50;2.40;;;24.00;89.00;;;;;;5048347;28;20766;-81
2021/07/15 07:10:44;;;;;;;7.45;2.22;;;24.20;88.90;;;;;;5048287;28;20032;-81
2021/07/15 07:13:28;;;;;;;5.63;2.60;;;24.30;88.50;;;;;;5035143;28;20090;-76
2021/07/15 07:16:12;;;;;;;3.85;2.35;;;24.30;88.10;;;;;;5046747;28;20044;-81
2021/07/15 07:18:56;;;;;;;4.55;2.20;;;24.50;88.80;;;;;;5044046;28;20047;-83
2021/07/15 07:21:40;;;;;;;5.63;2.33;;;24.60;87.70;;;;;;5030923;28;20124;-75
2021/07/15 07:24:24;;;;;;;3.10;2.10;;;24.60;88.00;;;;;;5045640;28;20079;-85
2021/07/15 07:27:10;;;;;;;2.83;2.00;;;24.70;88.80;;;;;;5047827;28;20037;-79
2021/07/15 07:29:56;;;;;;;4.95;2.15;;;24.80;87.60;;;;;;5046244;28;20108;-77
2021/07/15 07:32:43;;;;;;;5.78;2.22;;;24.90;87.00;;;;;;5040754;28;20452;-74
2021/07/15 07:35:29;;;;;;;6.13;2.25;;;24.90;86.60;;;;;;5046975;28;20127;-85
2021/07/15 07:38:15;;;;;;;3.08;1.90;;;25.00;85.90;;;;;;5030524;28;20029;-75
2021/07/15 07:41:01;;;;;;;2.88;1.70;;;25.00;85.10;;;;;;5025822;28;20512;-79
2021/07/15 07:43:47;;;;;;;2.88;2.20;;;25.00;84.50;;;;;;5039706;28;20028;-79
2021/07/15 07:46:33;;;;;;;5.80;1.95;;;25.00;83.80;;;;;;5036194;28;20325;-75
2021/07/15 07:49:19;;;;;;;4.22;1.80;;;25.00;83.20;;;;;;5024253;28;20031;-75
2021/07/15 07:52:05;;;;;;;4.22;1.95;;;24.90;83.60;;;;;;5038062;28;20075;-76
2021/07/15 07:54:51;;;;;;;6.90;1.90;;;24.90;83.30;;;;;;5041883;28;20435;-74
2021/07/15 07:57:37;;;;;;;2.90;1.80;;;24.90;83.80;;;;;;5051078;28;20136;-75
2021/07/15 08:00:24;;;;;;;2.60;1.80;;;24.90;84.60;;;;;;5049398;28;20036;-75
2021/07/15 08:03:09;;;;;;;4.55;1.70;;;24.90;83.70;;;;;;5050339;28;20370;-76
2021/07/15 08:05:55;;;;;;;4.30;2.00;;;25.00;84.20;;;;;;5049961;28;20041;-76
2021/07/15 08:08:41;;;;;;;8.18;2.45;;;25.00;84.00;;;;;;5050775;28;20029;-76
2021/07/15 08:11:28;;;;;;;2.05;1.63;;;24.90;83.40;;;;;;5044500;28;20086;-76
2021/07/15 08:14:14;;;;;;;5.13;1.92;;;24.90;84.00;;;;;;5029716;28;20086;-76
2021/07/15 08:17:00;;;;;;;4.05;1.50;;;24.80;84.10;;;;;;5042667;28;20064;-75
2021/07/15 08:19:46;;;;;;;4.90;1.70;;;24.80;83.60;;;;;;5049628;28;20031;-76
2021/07/15 08:22:31;;;;;;;2.40;1.70;;;24.80;83.40;;;;;;5048436;28;20018;-75
2021/07/15 08:25:19;;;;;;;5.28;1.92;;;24.90;84.10;;;;;;5012041;28;20080;-76
2021/07/15 08:28:05;;;;;;;2.13;1.55;;;25.00;83.30;;;;;;5010311;28;20057;-76
2021/07/15 08:30:51;;;;;;;2.55;1.67;;;25.10;82.50;;;;;;5009806;28;20072;-75
2021/07/15 08:33:37;;;;;;;8.77;2.55;;;25.10;82.20;;;;;;5010061;28;20375;-75
2021/07/15 08:36:23;;;;;;;4.95;1.83;;;25.10;81.80;;;;;;5004489;28;20030;-75
2021/07/15 08:39:09;;;;;;;2.55;1.70;;;25.10;82.30;;;;;;4991443;28;20442;-75
2021/07/15 08:42:00;;;;;;;2.92;1.90;;;25.20;82.20;;;;;;5000861;28;20047;-75
2021/07/15 08:44:47;;;;;;;3.80;1.98;;;25.30;82.20;;;;;;5013593;28;20045;-75
2021/07/15 08:47:39;;;;;;;5.70;2.67;;;25.40;82.80;;;;;;4998958;28;20048;-75
2021/07/15 08:50:25;;;;;;;3.35;1.73;;;25.50;82.70;;;;;;5006164;28;20448;-75
2021/07/15 08:53:11;;;;;;;2.30;1.70;;;25.60;81.60;;;;;;4993968;28;20025;-75
2021/07/15 08:56:43;;;;;;;3.22;2.65;;;25.70;82.00;;;;;;4995183;28;20419;-75
2021/07/15 08:59:16;;;;;;;4.10;2.10;;;25.70;81.90;;;;;;4993864;28;20435;-75
2021/07/15 09:02:02;;;;;;;4.43;2.25;;;25.70;81.00;;;;;;5004166;28;20109;-74
2021/07/15 09:04:50;;;;;;;2.63;1.77;;;25.70;79.80;;;;;;5015096;28;20049;-74
2021/07/15 09:07:39;;;;;;;2.30;1.90;;;25.70;80.10;;;;;;5011549;28;20029;-74
2021/07/15 09:10:25;;;;;;;3.95;1.95;;;25.60;80.10;;;;;;5013565;28;20037;-74
2021/07/15 09:13:11;;;;;;;3.85;1.73;;;25.70;81.00;;;;;;4994805;28;20490;-75
2021/07/15 09:15:58;;;;;;;2.03;1.67;;;25.70;81.30;;;;;;4999924;28;20545;-75
2021/07/15 09:19:00;;;;;;;2.88;2.03;;;25.80;80.30;;;;;;5001305;28;20034;-75
2021/07/15 09:21:45;;;;;;;2.63;1.70;;;25.90;80.60;;;;;;5002724;28;20048;-74
2021/07/15 09:24:32;;;;;;;3.70;1.80;;;25.90;79.70;;;;;;5042914;28;20148;-76
2021/07/15 09:27:27;;;;;;;3.45;1.90;;;26.00;79.40;;;;;;5043989;28;20519;-76
2021/07/15 09:30:14;;;;;;;3.95;1.90;;;26.00;79.10;;;;;;5053435;28;20033;-76
2021/07/15 09:33:07;;;;;;;2.58;1.83;;;26.10;80.10;;;;;;5052792;28;20392;-75
2021/07/15 09:35:51;;;;;;;3.15;1.88;;;26.20;80.40;;;;;;5037864;28;20043;-76
2021/07/15 09:38:39;;;;;;;4.22;1.92;;;26.30;78.90;;;;;;5052855;28;20086;-76
2021/07/15 09:41:23;;;;;;;2.22;1.65;;;26.40;79.20;;;;;;5049006;28;20055;-75
2021/07/15 09:44:08;;;;;;;;;;;26.50;77.60;;;;;;5034582;28;20577;-76
2021/07/15 09:46:52;;;;;;;2.47;1.80;;;26.60;78.40;;;;;;5048791;28;19946;-75
2021/07/15 09:49:36;;;;;;;2.60;2.00;;;26.70;78.50;;;;;;5053557;28;20043;-76
2021/07/15 09:52:22;;;;;;;2.58;1.90;;;26.80;78.20;;;;;;5039424;28;20419;-76
2021/07/15 09:55:22;;;;;;;2.67;2.20;;;26.90;76.80;;;;;;5032621;28;20032;-76
2021/07/15 09:58:09;;;;;;;3.10;1.90;;;27.00;78.10;;;;;;5053224;28;20102;-76
2021/07/15 10:01:02;;;;;;;2.08;1.77;;;27.10;75.80;;;;;;5052276;28;20028;-76
2021/07/15 10:03:49;;;;;;;3.10;2.00;;;27.10;75.80;;;;;;5053212;28;20043;-75
2021/07/15 10:06:47;;;;;;;2.20;1.73;;;27.10;75.00;;;;;;5052368;28;20108;-76
2021/07/15 10:09:31;;;;;;;3.72;1.92;;;27.10;74.80;;;;;;5053204;28;20079;-77
2021/07/15 10:12:28;;;;;;;2.72;1.98;;;27.20;73.80;;;;;;5039476;28;20048;-77
2021/07/15 10:15:14;;;;;;;4.75;2.25;;;27.20;74.90;;;;;;5040366;28;20467;-77
2021/07/15 10:17:58;;;;;;;2.78;1.90;;;27.30;75.30;;;;;;5052354;28;20129;-76
2021/07/15 10:20:56;;;;;;;3.60;2.03;;;27.40;73.90;;;;;;5051808;28;20049;-77
2021/07/15 10:23:47;;;;;;;2.53;2.00;;;27.60;73.70;;;;;;5052641;28;20087;-74
2021/07/15 10:26:32;;;;;;;3.50;2.20;;;27.60;73.70;;;;;;5051531;28;20064;-77
2021/07/15 10:29:17;;;;;;;3.05;1.90;;;27.70;72.80;;;;;;5053164;28;20535;-75
2021/07/15 10:32:03;;;;;;;3.08;2.20;;;27.70;72.20;;;;;;5051322;28;20335;-74
2021/07/15 10:34:52;;;;;;;3.70;2.10;;;27.80;70.60;;;;;;5052477;28;20098;-75
2021/07/15 10:37:42;;;;;;;4.45;1.90;;;27.80;71.50;;;;;;5050463;28;20027;-75
2021/07/15 10:40:27;;;;;;;3.63;2.25;;;27.80;71.80;;;;;;5053017;28;20063;-75
2021/07/15 10:43:11;;;;;;;;;;;27.90;72.70;;;;;;5052605;28;20109;-76
2021/07/15 10:45:57;;;;;;;4.33;1.80;;;28.00;71.50;;;;;;5048615;28;19991;-75
2021/07/15 10:48:42;;;;;;;5.35;2.40;;;27.90;71.90;;;;;;5048120;28;20358;-76
2021/07/15 10:51:26;;;;;;;;;;;27.90;69.40;;;;;;5047468;28;20036;-75
2021/07/15 10:54:13;;;;;;;2.65;1.95;;;27.90;70.70;;;;;;5041212;28;20148;-76
2021/07/15 10:56:58;;;;;;;3.28;2.20;;;28.00;70.60;;;;;;5042617;28;20099;-75
2021/07/15 10:59:42;;;;;;;3.90;2.20;;;28.10;69.20;;;;;;5041628;28;20059;-75
2021/07/15 11:02:27;;;;;;;3.28;2.33;;;28.10;67.90;;;;;;5045967;28;20031;-78
2021/07/15 11:05:26;;;;;;;2.30;1.95;;;28.20;70.10;;;;;;5042962;28;20082;-75
2021/07/15 11:08:11;;;;;;;2.92;1.98;;;28.30;69.80;;;;;;5047313;28;20054;-75
2021/07/15 11:10:59;;;;;;;4.72;1.92;;;28.40;70.30;;;;;;5048758;28;20534;-74
2021/07/15 11:13:43;;;;;;;4.75;2.40;;;28.50;68.80;;;;;;5046453;28;20413;-75
2021/07/15 11:16:51;;;;;;;2.90;2.03;;;28.60;70.80;;;;;;5050236;28;20083;-74
2021/07/15 11:19:59;;;;;;;2.80;1.90;;;28.60;68.70;;;;;;5039757;28;20040;-74
2021/07/15 11:22:51;;;;;;;3.85;2.20;;;28.70;69.30;;;;;;5040931;28;20058;-74
2021/07/15 11:25:41;;;;;;;4.50;2.50;;;28.70;69.20;;;;;;5049144;28;20120;-75
2021/07/15 11:28:27;;;;;;;2.80;2.33;;;28.80;69.70;;;;;;5043528;28;20083;-79
2021/07/15 11:31:40;;;;;;;3.10;2.00;;;28.80;69.30;;;;;;5036865;28;20040;-74
2021/07/15 11:34:40;;;;;;;3.17;2.00;;;28.90;67.20;;;;;;5043670;28;20098;-76
2021/07/15 11:37:26;;;;;;;4.38;2.35;;;28.90;68.00;;;;;;5044432;28;20160;-76
2021/07/15 11:40:34;;;;;;;3.17;2.38;;;28.90;68.60;;;;;;5047346;28;20079;-75
2021/07/15 11:43:32;;;;;;;3.33;2.25;;;29.00;67.50;;;;;;5035130;28;20061;-76
2021/07/15 11:46:19;;;;;;;2.90;2.10;;;29.10;68.10;;;;;;5045293;28;20029;-75
2021/07/15 11:49:09;;;;;;;2.72;2.13;;;29.10;67.10;;;;;;5041478;28;20064;-76
2021/07/15 11:52:01;;;;;;;3.00;2.10;;;29.20;64.30;;;;;;5036628;28;20052;-76
2021/07/15 11:54:48;;;;;;;3.67;2.20;;;29.20;64.90;;;;;;5035888;28;20416;-76
2021/07/15 11:57:37;;;;;;;5.18;2.40;;;29.30;65.70;;;;;;5032974;28;20385;-75
2021/07/15 12:00:23;;;;;;;4.18;2.97;;;29.20;64.60;;;;;;5031718;28;20390;-76
2021/07/15 12:03:14;;;;;;;3.83;2.20;;;29.10;64.20;;;;;;5037754;28;20452;-75
2021/07/15 12:06:11;;;;;;;3.28;2.65;;;29.10;64.40;;;;;;5056835;28;20028;-76
2021/07/15 12:09:08;;;;;;;5.35;2.50;;;29.20;65.50;;;;;;5055210;28;20037;-76
2021/07/15 12:11:57;;;;;;;4.53;2.53;;;29.20;65.80;;;;;;5044079;28;20029;-76
2021/07/15 12:14:54;;;;;;;3.85;2.40;;;29.30;64.60;;;;;;5054569;28;20022;-76
2021/07/15 12:17:41;;;;;;;3.05;2.33;;;29.20;65.70;;;;;;5057558;28;20135;-76
2021/07/15 12:20:45;;;;;;;6.40;3.00;;;29.20;65.40;;;;;;5054578;28;20032;-76
2021/07/15 12:23:37;;;;;;;3.92;2.78;;;29.20;66.20;;;;;;5053773;28;20487;-76
2021/07/15 12:26:23;;;;;;;4.80;2.90;;;29.30;66.00;;;;;;5054345;28;20033;-75
2021/07/15 12:29:14;;;;;;;4.10;2.60;;;29.40;65.30;;;;;;5051346;28;20104;-75
2021/07/15 12:32:00;;;;;;;4.30;2.50;;;29.40;65.40;;;;;;5044287;28;20059;-76
2021/07/15 12:34:46;;;;;;;4.25;2.80;;;29.40;63.20;;;;;;5044548;28;20032;-76
2021/07/15 12:37:31;;;;;;;5.82;2.70;;;29.30;63.90;;;;;;5046074;28;20032;-76
2021/07/15 12:40:17;;;;;;;3.30;2.50;;;29.20;64.70;;;;;;5045325;28;20036;-76
2021/07/15 12:43:21;;;;;;;2.72;2.40;;;29.10;64.00;;;;;;5042487;28;20067;-76
2021/07/15 12:46:18;;;;;;;5.85;2.78;;;29.10;63.90;;;;;;5047542;28;20104;-76
2021/07/15 12:49:16;;;;;;;3.15;2.55;;;29.10;64.60;;;;;;5047751;28;20020;-76
2021/07/15 12:52:03;;;;;;;4.85;3.08;;;29.10;63.90;;;;;;5048189;28;20548;-77
2021/07/15 12:54:53;;;;;;;5.50;3.20;;;29.10;64.40;;;;;;5046122;28;20569;-76
2021/07/15 12:57:39;;;;;;;4.75;2.60;;;29.20;64.40;;;;;;5038248;28;20088;-75
2021/07/15 13:00:25;;;;;;;4.05;2.70;;;29.30;64.20;;;;;;5049457;28;20021;-76
2021/07/15 13:03:10;;;;;;;3.38;2.72;;;29.40;62.90;;;;;;5034662;28;20670;-76
2021/07/15 13:05:57;;;;;;;3.30;2.80;;;29.40;63.30;;;;;;5051075;28;20037;-76
2021/07/15 13:08:50;;;;;;;5.15;2.63;;;29.60;63.20;;;;;;5046952;28;20037;-76
2021/07/15 13:14:49;;;;;;;5.57;3.40;;;29.50;63.40;;;;;;5052499;28;20656;-72
2021/07/15 13:17:44;;;;;;;3.70;2.85;;;29.50;64.30;;;;;;5050941;28;20040;-74
2021/07/15 13:20:30;;;;;;;8.30;3.83;;;29.50;62.60;;;;;;5037573;28;20067;-74
2021/07/15 13:23:14;;;;;;;3.72;3.00;;;29.50;63.30;;;;;;5050594;28;20408;-73
2021/07/15 13:25:58;;;;;;;4.20;3.05;;;29.50;63.60;;;;;;5052363;28;20039;-74
2021/07/15 13:28:42;;;;;;;4.10;2.80;;;29.60;63.50;;;;;;5053906;28;20043;-71
2021/07/15 13:31:26;;;;;;;3.95;3.00;;;29.70;64.20;;;;;;5051487;28;20094;-72
2021/07/15 13:34:12;;;;;;;4.82;2.60;;;29.80;63.60;;;;;;5053198;28;20497;-72
2021/07/15 13:36:58;;;;;;;5.03;2.67;;;29.90;62.20;;;;;;5046353;28;20048;-72
2021/07/15 13:39:47;;;;;;;4.88;2.80;;;29.90;62.40;;;;;;5053685;28;20032;-73
2021/07/15 13:42:34;;;;;;;2.85;2.35;;;29.90;62.70;;;;;;5051851;28;20136;-73
2021/07/15 13:45:23;;;;;;;3.70;2.58;;;30.00;62.90;;;;;;5053237;28;20511;-73
2021/07/15 13:48:22;;;;;;;3.13;2.45;;;30.20;62.10;;;;;;5051880;28;20167;-73
2021/07/15 13:51:08;;;;;;;5.38;3.55;;;30.30;61.90;;;;;;5052231;28;20495;-75
2021/07/15 13:53:53;;;;;;;3.15;2.75;;;30.40;60.10;;;;;;5052617;28;20396;-69
2021/07/15 13:56:38;;;;;;;6.47;4.90;;;30.50;60.00;;;;;;5046277;28;20095;-72
2021/07/15 13:59:22;;;;;;;5.40;4.25;;;30.50;60.60;;;;;;5045579;28;20397;-72
2021/07/15 14:02:11;;;;;;;3.70;3.30;;;30.60;61.10;;;;;;5047164;28;20047;-72
2021/07/15 14:04:59;;;;;;;4.47;3.20;;;30.60;60.70;;;;;;5042688;28;20094;-72
2021/07/15 14:07:43;;;;;;;5.53;2.80;;;30.60;61.00;;;;;;5047685;28;20072;-72
2021/07/15 14:10:28;;;;;;;5.53;2.92;;;30.50;60.80;;;;;;5040821;28;20097;-72
2021/07/15 14:13:13;;;;;;;5.25;3.55;;;30.50;60.20;;;;;;5043525;28;20397;-72
2021/07/15 14:16:00;;;;;;;3.40;2.22;;;30.40;59.70;;;;;;5044491;28;20095;-72
2021/07/15 14:18:43;;;;;;;4.55;2.55;;;30.20;59.10;;;;;;5042610;28;20109;-71
2021/07/15 14:21:30;;;;;;;4.47;2.63;;;29.90;59.50;;;;;;5047700;28;20048;-71
2021/07/15 14:24:14;;;;;;;11.57;8.02;;;29.80;60.20;;;;;;5050258;28;20048;-71
2021/07/15 14:26:58;;;;;;;6.15;4.93;;;29.40;64.40;;;;;;5045506;28;20035;-76
2021/07/15 14:29:44;;;;;;;10.98;5.93;;;29.00;67.30;;;;;;5038321;28;20075;-75
2021/07/15 14:32:28;;;;;;;7.47;4.88;;;28.40;71.20;;;;;;5045746;28;20568;-76
2021/07/15 14:35:12;;;;;;;6.38;4.13;;;27.70;77.00;;;;;;5042249;28;20072;-71
2021/07/15 14:37:56;;;;;;;10.57;4.55;;;27.20;79.00;;;;;;5046778;28;20044;-69
2021/07/15 14:40:41;;;;;;;8.02;4.25;;;26.50;86.40;;;;;;5045360;28;20180;-69